Time;durP1;ratioP1;P1;durP2;ratioP2;P2;SDS_P1;SDS_P2;PMS_P1;PMS_P2;Temp;Humidity;BMP_temperature;BMP_pressure;BME280_temperature;BME280_humidity;BME280_pressure;Samples;Min_cycle;Max_cycle;Signal;HPM_P1;HPM_P2
2023/08/13 00:00:07;;;;;;;2.80;1.10;;;21.60;99.90;;;;;;5076836;28;20416;-62
2023/08/13 00:02:34;;;;;;;1.30;1.00;;;21.60;99.90;;;;;;5080815;28;20476;-63
2023/08/13 00:05:02;;;;;;;1.70;1.60;;;21.50;99.90;;;;;;5075838;28;20485;-63
2023/08/13 00:07:29;;;;;;;1.48;1.10;;;21.50;99.90;;;;;;5078166;28;20526;-62
2023/08/13 00:09:56;;;;;;;1.70;1.00;;;21.50;99.90;;;;;;5076270;28;20423;-62
2023/08/13 00:12:23;;;;;;;1.25;0.93;;;21.40;99.90;;;;;;5092123;28;20422;-61
2023/08/13 00:14:50;;;;;;;1.40;1.00;;;21.40;99.90;;;;;;5094845;28;20421;-63
2023/08/13 00:17:21;;;;;;;1.10;1.00;;;21.30;99.90;;;;;;5092432;28;20426;-62
2023/08/13 00:19:48;;;;;;;1.40;1.00;;;21.30;99.90;;;;;;5093610;28;20517;-62
2023/08/13 00:22:15;;;;;;;1.33;1.00;;;21.30;99.90;;;;;;5091898;28;20433;-62
2023/08/13 00:24:42;;;;;;;3.10;1.00;;;21.30;99.90;;;;;;5092837;28;20447;-62
2023/08/13 00:27:09;;;;;;;1.40;0.90;;;21.30;99.90;;;;;;5075467;28;20423;-62
2023/08/13 00:29:37;;;;;;;1.50;0.90;;;21.30;99.90;;;;;;5075293;28;20865;-62
2023/08/13 00:32:05;;;;;;;1.10;0.90;;;21.20;99.90;;;;;;5094943;28;20434;-62
2023/08/13 00:34:33;;;;;;;1.63;1.20;;;21.30;99.90;;;;;;5092316;28;20437;-62
2023/08/13 00:37:00;;;;;;;1.27;1.10;;;21.20;99.90;;;;;;5095468;28;20422;-62
2023/08/13 00:39:27;;;;;;;1.83;1.10;;;21.20;99.90;;;;;;5090743;28;20550;-61
2023/08/13 00:41:54;;;;;;;1.90;0.95;;;21.10;99.90;;;;;;5074336;28;20466;-62
2023/08/13 00:44:21;;;;;;;1.83;1.10;;;21.10;99.90;;;;;;5074191;28;20493;-62
2023/08/13 00:46:48;;;;;;;1.63;1.00;;;21.10;99.90;;;;;;5073478;28;20823;-62
2023/08/13 00:49:15;;;;;;;2.13;1.00;;;21.10;99.90;;;;;;5072811;28;20838;-62
2023/08/13 00:51:44;;;;;;;2.10;1.20;;;21.10;99.90;;;;;;5073859;28;20525;-62
2023/08/13 00:54:11;;;;;;;1.20;1.00;;;21.20;99.90;;;;;;5079723;28;20476;-62
2023/08/13 00:56:39;;;;;;;1.90;0.90;;;21.10;99.90;;;;;;5116227;28;20546;-62
2023/08/13 00:59:06;;;;;;;1.10;0.90;;;21.10;99.90;;;;;;5106553;28;20429;-62
2023/08/13 01:01:34;;;;;;;2.30;0.90;;;21.10;99.90;;;;;;5073950;28;20476;-62
2023/08/13 01:04:01;;;;;;;1.50;0.90;;;21.10;99.90;;;;;;5073687;28;20793;-62
2023/08/13 01:06:38;;;;;;;1.70;1.30;;;21.00;99.90;;;;;;5073441;28;20465;-61
2023/08/13 01:09:14;;;;;;;1.48;1.00;;;20.90;99.90;;;;;;5072595;28;20439;-62
2023/08/13 01:11:51;;;;;;;1.63;1.05;;;21.00;99.90;;;;;;5073684;28;20427;-62
2023/08/13 01:14:25;;;;;;;1.10;0.90;;;20.90;99.90;;;;;;5075955;28;20434;-62
2023/08/13 01:16:53;;;;;;;1.00;0.90;;;20.90;99.90;;;;;;5093674;28;20425;-62
2023/08/13 01:19:21;;;;;;;1.50;0.90;;;20.80;99.90;;;;;;5090258;28;20510;-61
2023/08/13 01:21:48;;;;;;;1.00;0.90;;;20.80;99.90;;;;;;5073462;28;20423;-61
2023/08/13 01:24:16;;;;;;;1.90;0.90;;;20.80;99.90;;;;;;5073679;28;20493;-61
2023/08/13 01:26:50;;;;;;;1.48;1.00;;;20.80;99.90;;;;;;5072103;28;20560;-62
2023/08/13 01:29:27;;;;;;;1.35;0.90;;;20.80;99.90;;;;;;5072704;28;20866;-62
2023/08/13 01:31:58;;;;;;;1.43;1.00;;;20.80;99.90;;;;;;5073896;28;20431;-61
2023/08/13 01:34:26;;;;;;;1.43;1.00;;;20.70;99.90;;;;;;5077238;28;20458;-61
2023/08/13 01:36:53;;;;;;;1.30;0.98;;;20.70;99.90;;;;;;5074072;28;20434;-61
2023/08/13 01:39:22;;;;;;;2.00;0.90;;;20.60;99.90;;;;;;5073440;28;20423;-61
2023/08/13 01:41:53;;;;;;;1.70;0.90;;;20.60;99.90;;;;;;5074088;28;20704;-61
2023/08/13 01:44:20;;;;;;;1.90;0.90;;;20.70;99.90;;;;;;5074783;28;20493;-61
2023/08/13 01:46:47;;;;;;;1.23;0.90;;;20.60;99.90;;;;;;5074321;28;20424;-61
2023/08/13 01:49:14;;;;;;;1.20;0.90;;;20.60;99.90;;;;;;5074019;28;20435;-61
2023/08/13 01:51:41;;;;;;;1.60;1.20;;;20.50;99.90;;;;;;5073471;28;20713;-61
2023/08/13 01:54:08;;;;;;;2.00;0.90;;;20.60;99.90;;;;;;5074151;28;20415;-61
2023/08/13 01:56:36;;;;;;;1.10;0.80;;;20.60;99.90;;;;;;5074289;28;20735;-61
2023/08/13 01:59:04;;;;;;;2.10;0.90;;;20.60;99.90;;;;;;5074756;28;20423;-60
2023/08/13 02:01:31;;;;;;;1.10;0.87;;;20.60;99.90;;;;;;5074331;28;20428;-62
2023/08/13 02:03:57;;;;;;;1.85;1.00;;;20.70;99.90;;;;;;5073922;28;20439;-61
2023/08/13 02:06:24;;;;;;;1.15;0.90;;;20.60;99.90;;;;;;5073637;28;20411;-60
2023/08/13 02:08:51;;;;;;;1.10;0.80;;;20.70;99.90;;;;;;5073699;28;20564;-61
2023/08/13 02:11:18;;;;;;;1.70;0.90;;;20.70;99.90;;;;;;5073959;28;20466;-61
2023/08/13 02:13:47;;;;;;;2.20;0.90;;;20.70;99.90;;;;;;5074582;28;20431;-61
2023/08/13 02:16:14;;;;;;;1.50;0.90;;;20.70;99.90;;;;;;5074158;28;20587;-62
2023/08/13 02:18:41;;;;;;;2.00;0.90;;;20.70;99.90;;;;;;5073816;28;20835;-60
2023/08/13 02:21:07;;;;;;;1.20;0.90;;;20.70;99.90;;;;;;5072582;28;20419;-61
2023/08/13 02:23:34;;;;;;;1.20;0.90;;;20.70;99.90;;;;;;5072352;28;20423;-61
2023/08/13 02:26:01;;;;;;;2.50;0.90;;;20.70;99.90;;;;;;5073735;28;20423;-61
2023/08/13 02:28:28;;;;;;;2.20;0.85;;;20.80;99.90;;;;;;5076553;28;20435;-62
2023/08/13 02:30:57;;;;;;;2.30;0.80;;;20.80;99.90;;;;;;5076714;28;20684;-62
2023/08/13 02:33:24;;;;;;;1.52;0.90;;;20.90;99.90;;;;;;5076153;28;20435;-60
2023/08/13 02:35:51;;;;;;;1.73;0.90;;;20.90;99.90;;;;;;5076880;28;20476;-61
2023/08/13 02:38:18;;;;;;;1.40;0.90;;;20.90;99.90;;;;;;5077986;28;20420;-61
2023/08/13 02:40:45;;;;;;;1.48;0.90;;;20.90;99.90;;;;;;5077711;28;20484;-61
2023/08/13 02:43:12;;;;;;;2.08;0.90;;;20.90;99.90;;;;;;5077400;28;20427;-61
2023/08/13 02:45:39;;;;;;;1.30;0.90;;;20.90;99.90;;;;;;5077036;28;20473;-61
2023/08/13 02:48:07;;;;;;;2.70;1.00;;;20.90;99.90;;;;;;5077406;28;20419;-61
2023/08/13 02:50:34;;;;;;;1.10;0.80;;;20.80;99.90;;;;;;5077701;28;20959;-62
2023/08/13 02:53:01;;;;;;;1.10;0.80;;;20.90;99.90;;;;;;5077881;28;20423;-62
2023/08/13 02:55:28;;;;;;;1.05;0.73;;;20.90;99.90;;;;;;5076756;28;20428;-62
2023/08/13 02:57:55;;;;;;;1.20;0.80;;;21.00;99.90;;;;;;5076896;28;20424;-61
2023/08/13 03:00:22;;;;;;;1.60;0.90;;;20.90;99.90;;;;;;5074685;28;20415;-61
2023/08/13 03:02:49;;;;;;;1.83;0.80;;;20.90;99.90;;;;;;5076673;28;20419;-62
2023/08/13 03:05:18;;;;;;;1.98;0.90;;;20.80;99.90;;;;;;5077160;28;20481;-62
2023/08/13 03:07:45;;;;;;;1.70;1.20;;;20.80;99.90;;;;;;5077415;28;20431;-61
2023/08/13 03:10:12;;;;;;;1.65;0.80;;;20.80;99.90;;;;;;5077302;28;20431;-62
2023/08/13 03:12:39;;;;;;;1.40;0.83;;;20.80;99.90;;;;;;5077204;28;20423;-63
2023/08/13 03:15:08;;;;;;;1.20;0.80;;;20.80;99.90;;;;;;5075075;28;20420;-62
2023/08/13 03:17:34;;;;;;;1.50;0.80;;;20.80;99.90;;;;;;5075013;28;20427;-62
2023/08/13 03:20:01;;;;;;;1.80;0.80;;;20.90;99.90;;;;;;5074746;28;20423;-62
2023/08/13 03:22:30;;;;;;;1.17;0.80;;;21.00;99.90;;;;;;5075645;28;20430;-61
2023/08/13 03:24:57;;;;;;;1.30;0.90;;;21.00;99.90;;;;;;5074909;28;20431;-62
2023/08/13 03:27:24;;;;;;;0.90;0.73;;;21.10;99.90;;;;;;5075093;28;20481;-61
2023/08/13 03:29:51;;;;;;;1.20;0.90;;;21.00;99.90;;;;;;5075924;28;20441;-61
2023/08/13 03:32:17;;;;;;;1.77;0.90;;;21.00;99.90;;;;;;5076864;28;20838;-61
2023/08/13 03:34:44;;;;;;;1.00;0.90;;;21.00;99.90;;;;;;5077072;28;20545;-62
2023/08/13 03:37:11;;;;;;;1.20;0.90;;;21.00;99.90;;;;;;5075609;28;20493;-62
2023/08/13 03:39:40;;;;;;;1.10;0.80;;;20.90;99.90;;;;;;5075567;28;20473;-61
2023/08/13 03:42:07;;;;;;;1.10;0.90;;;20.90;99.90;;;;;;5075946;28;20468;-62
2023/08/13 03:44:33;;;;;;;1.42;0.80;;;20.90;99.90;;;;;;5076354;28;20454;-62
2023/08/13 03:47:00;;;;;;;1.10;0.85;;;20.90;99.90;;;;;;5076275;28;20493;-62
2023/08/13 03:49:27;;;;;;;1.75;0.90;;;20.90;99.90;;;;;;5076652;28;20928;-61
2023/08/13 03:51:54;;;;;;;1.20;0.90;;;20.90;99.90;;;;;;5076302;28;20424;-62
2023/08/13 03:54:21;;;;;;;1.30;0.90;;;20.90;99.90;;;;;;5076163;28;20455;-62
2023/08/13 03:56:50;;;;;;;1.40;0.80;;;21.00;99.90;;;;;;5076161;28;20543;-62
2023/08/13 03:59:16;;;;;;;1.05;0.90;;;21.00;99.90;;;;;;5076042;28;20544;-62
2023/08/13 04:01:44;;;;;;;1.10;0.80;;;21.10;99.90;;;;;;5076294;28;20481;-62
2023/08/13 04:04:11;;;;;;;2.10;0.90;;;21.10;99.90;;;;;;5076091;28;20427;-62
2023/08/13 04:06:38;;;;;;;1.20;0.80;;;21.10;99.90;;;;;;5075860;28;20832;-61
2023/08/13 04:09:05;;;;;;;1.10;0.73;;;21.10;99.90;;;;;;5075420;28;20428;-62
2023/08/13 04:11:32;;;;;;;1.30;0.90;;;21.10;99.90;;;;;;5076299;28;20431;-62
2023/08/13 04:14:01;;;;;;;1.70;0.90;;;21.10;99.90;;;;;;5076079;28;20781;-62
2023/08/13 04:16:28;;;;;;;1.90;0.90;;;21.10;99.90;;;;;;5075579;28;20431;-61
2023/08/13 04:18:54;;;;;;;1.20;0.90;;;21.20;99.90;;;;;;5075015;28;20477;-62
2023/08/13 04:21:21;;;;;;;1.35;0.90;;;21.20;99.90;;;;;;5075264;28;20420;-62
2023/08/13 04:23:49;;;;;;;1.70;1.00;;;21.20;99.90;;;;;;5075968;28;20455;-62
2023/08/13 04:26:16;;;;;;;1.10;0.90;;;21.20;99.90;;;;;;5075837;28;20427;-62
2023/08/13 04:28:43;;;;;;;1.30;0.90;;;21.20;99.90;;;;;;5075252;28;20500;-61
2023/08/13 04:31:11;;;;;;;1.30;1.00;;;21.20;99.90;;;;;;5074004;28;20435;-61
2023/08/13 04:33:40;;;;;;;1.20;0.90;;;21.20;99.90;;;;;;5074275;28;20419;-61
2023/08/13 04:36:07;;;;;;;1.60;1.00;;;21.20;99.90;;;;;;5073450;28;20458;-62
2023/08/13 04:38:34;;;;;;;1.30;0.90;;;21.10;99.90;;;;;;5074191;28;20431;-62
2023/08/13 04:41:02;;;;;;;1.20;0.90;;;21.00;99.90;;;;;;5074334;28;20485;-62
2023/08/13 04:43:30;;;;;;;1.50;0.90;;;21.00;99.90;;;;;;5074537;28;20423;-61
2023/08/13 04:45:57;;;;;;;1.60;0.90;;;20.90;99.90;;;;;;5072995;28;20431;-62
2023/08/13 04:48:44;;;;;;;1.40;0.90;;;20.90;99.90;;;;;;5072121;28;20420;-60
2023/08/13 04:51:11;;;;;;;2.40;1.00;;;20.80;99.90;;;;;;5073881;28;20396;-62
2023/08/13 04:53:38;;;;;;;1.70;1.45;;;20.70;99.90;;;;;;5074885;28;20548;-62
2023/08/13 04:56:06;;;;;;;1.20;1.00;;;20.70;99.90;;;;;;5074883;28;20489;-61
2023/08/13 04:58:33;;;;;;;2.20;0.90;;;20.80;99.90;;;;;;5074920;28;20518;-62
2023/08/13 05:01:00;;;;;;;1.60;0.90;;;20.90;99.90;;;;;;5075240;28;20424;-61
2023/08/13 05:03:27;;;;;;;1.00;0.90;;;21.00;99.90;;;;;;5075416;28;20477;-61
2023/08/13 05:05:55;;;;;;;1.20;1.10;;;21.10;99.90;;;;;;5074780;28;20411;-62
2023/08/13 05:08:22;;;;;;;1.10;0.88;;;21.10;99.90;;;;;;5075330;28;20428;-59
2023/08/13 05:10:49;;;;;;;2.50;1.00;;;21.00;99.90;;;;;;5075315;28;20439;-59
2023/08/13 05:13:17;;;;;;;2.00;1.00;;;20.80;99.90;;;;;;5075022;28;20458;-59
2023/08/13 05:15:44;;;;;;;1.90;1.00;;;20.70;99.90;;;;;;5074507;28;20423;-59
2023/08/13 05:18:11;;;;;;;1.60;1.10;;;20.60;99.90;;;;;;5074591;28;20819;-60
2023/08/13 05:20:38;;;;;;;1.43;1.20;;;20.50;99.90;;;;;;5074854;28;20514;-60
2023/08/13 05:23:07;;;;;;;1.98;1.10;;;20.50;99.90;;;;;;5074370;28;20454;-61
2023/08/13 05:25:37;;;;;;;1.50;1.00;;;20.50;99.90;;;;;;5072845;28;20427;-60
2023/08/13 05:28:06;;;;;;;2.20;1.00;;;20.60;99.90;;;;;;5072900;28;20428;-60
2023/08/13 05:30:33;;;;;;;1.60;1.20;;;20.50;99.90;;;;;;5072646;28;20501;-60
2023/08/13 05:33:00;;;;;;;1.70;1.20;;;20.40;99.90;;;;;;5072787;28;20860;-61
2023/08/13 05:35:27;;;;;;;1.60;1.20;;;20.30;99.90;;;;;;5072890;28;20423;-61
2023/08/13 05:37:54;;;;;;;1.88;1.20;;;20.30;99.90;;;;;;5073222;28;20424;-62
2023/08/13 05:40:22;;;;;;;1.67;1.20;;;20.30;99.90;;;;;;5073222;28;20433;-61
2023/08/13 05:42:50;;;;;;;1.93;1.13;;;20.30;99.90;;;;;;5072743;28;20492;-61
2023/08/13 05:45:18;;;;;;;2.60;1.10;;;20.30;99.90;;;;;;5072839;28;20481;-61
2023/08/13 05:47:45;;;;;;;1.67;1.40;;;20.30;99.90;;;;;;5073688;28;20517;-61
2023/08/13 05:50:12;;;;;;;1.80;1.20;;;20.30;99.90;;;;;;5072762;28;20436;-61
2023/08/13 05:52:39;;;;;;;1.60;1.20;;;20.40;99.90;;;;;;5072903;28;20476;-61
2023/08/13 05:55:07;;;;;;;2.08;1.33;;;20.40;99.90;;;;;;5072389;28;20420;-62
2023/08/13 05:57:35;;;;;;;2.90;1.30;;;20.50;99.90;;;;;;5073139;28;20915;-61
2023/08/13 06:00:05;;;;;;;1.90;1.20;;;20.50;99.90;;;;;;5074177;28;20411;-62
2023/08/13 06:02:32;;;;;;;2.40;1.10;;;20.60;99.90;;;;;;5077484;28;20427;-62
2023/08/13 06:04:59;;;;;;;2.10;1.15;;;20.70;99.90;;;;;;5077638;28;20423;-62
2023/08/13 06:07:27;;;;;;;1.25;1.10;;;20.80;99.90;;;;;;5077166;28;20429;-62
2023/08/13 06:09:54;;;;;;;2.30;1.20;;;20.80;99.90;;;;;;5076599;28;20622;-62
2023/08/13 06:12:21;;;;;;;1.40;1.00;;;20.80;99.90;;;;;;5076340;28;20727;-62
2023/08/13 06:14:49;;;;;;;2.50;1.10;;;20.90;99.90;;;;;;5076729;28;20410;-62
2023/08/13 06:17:16;;;;;;;1.60;1.00;;;21.00;99.90;;;;;;5075797;28;20484;-63
2023/08/13 06:19:43;;;;;;;1.90;1.00;;;21.10;99.90;;;;;;5076606;28;20423;-63
2023/08/13 06:22:12;;;;;;;1.20;0.90;;;21.20;99.90;;;;;;5075476;28;20423;-62
2023/08/13 06:24:39;;;;;;;2.15;0.98;;;21.20;99.90;;;;;;5075494;28;20447;-64
2023/08/13 06:27:06;;;;;;;1.40;1.10;;;21.30;99.90;;;;;;5075980;28;20455;-63
2023/08/13 06:29:33;;;;;;;2.15;1.40;;;21.30;99.90;;;;;;5075058;28;20496;-63
2023/08/13 06:32:01;;;;;;;2.00;1.20;;;21.20;99.90;;;;;;5075109;28;20493;-62
2023/08/13 06:34:28;;;;;;;1.40;1.00;;;21.30;99.90;;;;;;5075440;28;20427;-62
2023/08/13 06:36:55;;;;;;;1.53;1.03;;;21.20;99.90;;;;;;5076061;28;20415;-61
2023/08/13 06:39:24;;;;;;;1.60;1.30;;;21.20;99.90;;;;;;5076674;28;20867;-61
2023/08/13 06:41:51;;;;;;;1.90;1.30;;;21.20;99.90;;;;;;5076717;28;20504;-62
2023/08/13 06:44:19;;;;;;;2.13;1.30;;;21.10;99.90;;;;;;5076503;28;20481;-62
2023/08/13 06:46:46;;;;;;;1.40;1.10;;;21.10;99.90;;;;;;5076101;28;20463;-62
2023/08/13 06:49:15;;;;;;;1.80;1.10;;;21.00;99.90;;;;;;5076165;28;20473;-62
2023/08/13 06:51:43;;;;;;;1.55;1.30;;;21.10;99.90;;;;;;5076780;28;20431;-61
2023/08/13 06:54:10;;;;;;;2.10;1.20;;;21.10;99.90;;;;;;5076804;28;20446;-62
2023/08/13 06:56:37;;;;;;;2.30;1.30;;;21.10;99.90;;;;;;5076694;28;20786;-60
2023/08/13 06:59:05;;;;;;;2.40;1.10;;;21.10;99.90;;;;;;5075515;28;20622;-61
2023/08/13 07:01:33;;;;;;;1.60;1.20;;;21.10;99.90;;;;;;5077359;28;20440;-61
2023/08/13 07:04:00;;;;;;;1.60;1.10;;;21.00;99.90;;;;;;5074416;28;20427;-61
2023/08/13 07:06:29;;;;;;;2.72;1.42;;;21.00;99.90;;;;;;5087157;28;20414;-62
2023/08/13 07:08:56;;;;;;;1.50;1.20;;;21.00;99.90;;;;;;5075564;28;20811;-62
2023/08/13 07:11:23;;;;;;;2.00;1.23;;;21.00;99.90;;;;;;5083766;28;20430;-62
2023/08/13 07:13:51;;;;;;;1.95;1.35;;;21.10;99.90;;;;;;5095007;28;20497;-61
2023/08/13 07:16:18;;;;;;;2.10;1.30;;;21.10;99.90;;;;;;5094891;28;20528;-62
2023/08/13 07:18:45;;;;;;;2.00;1.20;;;21.00;99.90;;;;;;5090318;28;20761;-61
2023/08/13 07:21:12;;;;;;;1.60;1.10;;;21.10;99.90;;;;;;5073253;28;20467;-61
2023/08/13 07:23:41;;;;;;;1.70;1.10;;;21.10;99.90;;;;;;5072503;28;20507;-62
2023/08/13 07:26:07;;;;;;;1.33;1.00;;;21.20;99.90;;;;;;5075702;28;20512;-62
2023/08/13 07:28:35;;;;;;;1.30;1.00;;;21.40;99.90;;;;;;5074638;28;20545;-62
2023/08/13 07:31:04;;;;;;;1.77;0.90;;;21.60;99.90;;;;;;5073343;28;20474;-62
2023/08/13 07:33:31;;;;;;;1.50;1.10;;;21.80;99.90;;;;;;5073125;28;20528;-62
2023/08/13 07:35:59;;;;;;;1.40;1.10;;;21.80;99.90;;;;;;5073680;28;20425;-62
2023/08/13 07:38:27;;;;;;;1.85;1.30;;;21.70;99.90;;;;;;5074488;28;20427;-62
2023/08/13 07:40:56;;;;;;;1.70;1.15;;;21.70;99.90;;;;;;5074729;28;20429;-62
2023/08/13 07:43:23;;;;;;;2.72;1.10;;;21.80;99.90;;;;;;5073201;28;20476;-62
2023/08/13 07:45:51;;;;;;;1.20;1.00;;;21.80;99.90;;;;;;5073240;28;20420;-62
2023/08/13 07:48:18;;;;;;;1.70;1.10;;;21.80;99.90;;;;;;5073150;28;20765;-62
2023/08/13 07:50:45;;;;;;;1.73;1.00;;;21.80;99.90;;;;;;5074677;28;20435;-62
2023/08/13 07:53:12;;;;;;;1.60;0.90;;;21.80;99.90;;;;;;5072908;28;20495;-62
2023/08/13 07:55:39;;;;;;;1.50;1.00;;;22.00;99.90;;;;;;5071999;28;20471;-62
2023/08/13 07:58:08;;;;;;;1.50;1.10;;;21.90;99.90;;;;;;5077900;28;20462;-62
2023/08/13 08:00:35;;;;;;;1.90;1.10;;;21.90;99.90;;;;;;5091654;28;20443;-63
2023/08/13 08:03:03;;;;;;;1.60;1.10;;;22.10;99.90;;;;;;5080795;28;20510;-63
2023/08/13 08:05:30;;;;;;;2.00;1.00;;;22.30;99.90;;;;;;5079438;28;20446;-62
2023/08/13 08:07:57;;;;;;;2.50;1.10;;;22.40;99.90;;;;;;5086557;28;20502;-63
2023/08/13 08:10:28;;;;;;;1.40;1.00;;;22.40;99.90;;;;;;5089609;28;20491;-62
2023/08/13 08:12:55;;;;;;;1.40;1.00;;;22.20;99.90;;;;;;5086921;28;20668;-63
2023/08/13 08:15:24;;;;;;;1.40;1.20;;;22.30;99.90;;;;;;5073285;28;20476;-61
2023/08/13 08:17:51;;;;;;;1.55;1.15;;;22.30;99.90;;;;;;5076694;28;20526;-62
2023/08/13 08:20:18;;;;;;;2.00;1.08;;;22.30;99.90;;;;;;5077718;28;20450;-62
2023/08/13 08:22:44;;;;;;;1.50;1.00;;;22.30;99.90;;;;;;5078878;28;20803;-62
2023/08/13 08:25:12;;;;;;;1.30;1.00;;;22.20;99.90;;;;;;5087564;28;20477;-62
2023/08/13 08:27:39;;;;;;;1.40;0.90;;;22.30;99.90;;;;;;5088784;28;20799;-62
2023/08/13 08:30:07;;;;;;;1.60;1.10;;;22.40;99.90;;;;;;5092013;28;20491;-63
2023/08/13 08:32:36;;;;;;;1.13;0.90;;;22.50;99.90;;;;;;5085600;28;20812;-62
2023/08/13 08:35:04;;;;;;;1.65;1.00;;;22.70;99.90;;;;;;5087535;28;20878;-63
2023/08/13 08:37:32;;;;;;;1.40;0.80;;;22.90;99.90;;;;;;5084423;28;20520;-62
2023/08/13 08:39:59;;;;;;;1.25;0.90;;;22.90;99.90;;;;;;5088590;28;20474;-62
2023/08/13 08:42:27;;;;;;;1.30;0.90;;;23.00;99.90;;;;;;5075208;28;20439;-63
2023/08/13 08:44:54;;;;;;;1.35;0.90;;;22.90;99.90;;;;;;5075543;28;20982;-63
2023/08/13 08:47:22;;;;;;;1.48;1.00;;;22.80;99.90;;;;;;5085034;28;20429;-63
2023/08/13 08:49:52;;;;;;;1.30;0.90;;;22.80;99.90;;;;;;5083290;28;20529;-63
2023/08/13 08:52:20;;;;;;;1.90;1.40;;;22.90;99.90;;;;;;5086223;28;20439;-62
2023/08/13 08:54:49;;;;;;;1.42;0.90;;;23.00;99.90;;;;;;5089119;28;20433;-63
2023/08/13 08:57:18;;;;;;;1.50;1.00;;;23.30;99.90;;;;;;5091582;28;20892;-63
2023/08/13 08:59:45;;;;;;;2.20;1.00;;;23.40;99.90;;;;;;5079814;28;20427;-63
2023/08/13 09:02:13;;;;;;;1.70;1.00;;;23.40;99.90;;;;;;5073933;28;20902;-64
2023/08/13 09:04:40;;;;;;;1.20;1.00;;;23.00;99.90;;;;;;5084963;28;20965;-64
2023/08/13 09:07:08;;;;;;;1.80;1.00;;;22.90;99.90;;;;;;5093073;28;20517;-54
2023/08/13 09:09:36;;;;;;;1.10;1.00;;;23.00;99.90;;;;;;5090667;28;20875;-54
2023/08/13 09:12:03;;;;;;;1.43;0.90;;;23.10;99.90;;;;;;5087957;28;20452;-50
2023/08/13 09:14:30;;;;;;;1.30;1.00;;;23.30;99.90;;;;;;5074942;28;20497;-54
2023/08/13 09:16:58;;;;;;;1.10;1.00;;;23.00;99.90;;;;;;5084239;28;20430;-54
2023/08/13 09:19:27;;;;;;;1.70;1.00;;;22.90;99.90;;;;;;5083716;28;20532;-54
2023/08/13 09:21:56;;;;;;;1.60;1.00;;;22.90;99.90;;;;;;5072388;28;20806;-54
2023/08/13 09:24:34;;;;;;;1.30;0.90;;;23.10;99.90;;;;;;5077637;28;20467;-54
2023/08/13 09:27:02;;;;;;;1.30;0.88;;;23.50;99.90;;;;;;5074413;28;20470;-54
2023/08/13 09:29:30;;;;;;;1.48;0.90;;;23.70;99.90;;;;;;5083671;28;20530;-54
2023/08/13 09:31:57;;;;;;;1.20;0.90;;;23.70;99.90;;;;;;5078070;28;20450;-53
2023/08/13 09:34:25;;;;;;;1.30;0.90;;;23.90;99.90;;;;;;5085307;28;20491;-51
2023/08/13 09:36:53;;;;;;;1.10;0.90;;;24.00;99.90;;;;;;5088268;28;20483;-54
2023/08/13 09:39:21;;;;;;;1.50;0.90;;;24.20;99.90;;;;;;5077681;28;20712;-53
2023/08/13 09:41:51;;;;;;;1.10;0.90;;;24.20;99.90;;;;;;5071959;28;20526;-55
2023/08/13 09:44:20;;;;;;;1.70;1.10;;;24.20;99.90;;;;;;5082990;28;20862;-53
2023/08/13 09:46:52;;;;;;;1.60;1.15;;;24.30;99.90;;;;;;5087219;28;20505;-53
2023/08/13 09:49:19;;;;;;;1.90;1.00;;;24.30;99.90;;;;;;5093373;28;20421;-55
2023/08/13 09:51:49;;;;;;;2.03;1.10;;;24.20;99.90;;;;;;5093118;28;20437;-52
2023/08/13 09:54:30;;;;;;;1.77;1.20;;;24.30;99.90;;;;;;5093663;28;20896;-52
2023/08/13 09:57:02;;;;;;;1.35;1.08;;;24.20;99.90;;;;;;5092719;28;20414;-52
2023/08/13 09:59:31;;;;;;;1.17;1.00;;;24.20;99.90;;;;;;5093160;28;20454;-53
2023/08/13 10:01:58;;;;;;;1.80;1.10;;;24.20;99.90;;;;;;5093637;28;20475;-53
2023/08/13 10:04:26;;;;;;;1.80;1.00;;;24.30;99.90;;;;;;5094008;28;20422;-56
2023/08/13 10:06:56;;;;;;;1.20;1.00;;;24.60;99.90;;;;;;5094184;28;20556;-49
2023/08/13 10:09:23;;;;;;;1.10;0.90;;;24.80;99.90;;;;;;5092202;28;20917;-55
2023/08/13 10:11:50;;;;;;;1.90;0.90;;;25.00;99.90;;;;;;5093000;28;20796;-54
2023/08/13 10:14:19;;;;;;;1.10;0.88;;;25.20;96.90;;;;;;5088180;28;20911;-55
2023/08/13 10:16:47;;;;;;;2.10;1.10;;;25.30;63.90;;;;;;5072271;28;20934;-55
2023/08/13 10:19:14;;;;;;;1.40;0.90;;;25.20;66.00;;;;;;5072364;28;20485;-55
2023/08/13 10:21:42;;;;;;;1.70;1.10;;;25.10;73.30;;;;;;5070365;28;20463;-53
2023/08/13 10:24:12;;;;;;;1.60;0.90;;;25.10;86.00;;;;;;5072039;28;20485;-54
2023/08/13 10:26:42;;;;;;;1.10;0.90;;;25.20;99.90;;;;;;5092418;28;20422;-53
2023/08/13 10:29:18;;;;;;;1.40;1.00;;;25.20;68.60;;;;;;5085034;28;20470;-51
2023/08/13 10:31:48;;;;;;;1.10;0.90;;;25.40;75.20;;;;;;5072068;28;20444;-55
2023/08/13 10:34:17;;;;;;;1.17;0.80;;;25.50;57.10;;;;;;5072882;28;20474;-54
2023/08/13 10:36:52;;;;;;;1.10;0.80;;;25.50;30.20;;;;;;5072734;28;20536;-52
2023/08/13 10:39:36;;;;;;;0.98;0.80;;;25.50;39.80;;;;;;5082331;28;20418;-55
2023/08/13 10:42:06;;;;;;;1.00;0.70;;;25.90;33.80;;;;;;5092334;28;20406;-53
2023/08/13 10:44:41;;;;;;;1.65;0.80;;;26.30;1.00;;;;;;5078539;28;20526;-53
2023/08/13 10:47:08;;;;;;;1.60;0.98;;;26.60;1.00;;;;;;5072311;28;20427;-54
2023/08/13 10:49:37;;;;;;;1.60;0.90;;;26.70;1.00;;;;;;5075528;28;20777;-56
2023/08/13 10:52:05;;;;;;;1.30;1.00;;;26.30;2.50;;;;;;5076040;28;20743;-51
2023/08/13 10:54:34;;;;;;;1.27;1.00;;;26.30;25.80;;;;;;5087624;28;20426;-54
2023/08/13 10:57:02;;;;;;;1.50;1.00;;;26.20;12.10;;;;;;5097457;28;20470;-55
2023/08/13 10:59:31;;;;;;;1.10;0.80;;;26.10;4.60;;;;;;5078154;28;20431;-56
2023/08/13 11:02:15;;;;;;;1.10;0.90;;;26.10;22.70;;;;;;5078236;28;20480;-55
2023/08/13 11:04:43;;;;;;;1.08;0.88;;;26.00;30.80;;;;;;5093011;28;20434;-51
2023/08/13 11:07:11;;;;;;;1.45;0.90;;;26.10;17.50;;;;;;5091695;28;20458;-54
2023/08/13 11:09:40;;;;;;;1.20;0.90;;;26.20;22.40;;;;;;5074741;28;20450;-55
2023/08/13 11:12:10;;;;;;;1.50;0.90;;;26.20;15.90;;;;;;5076378;28;20700;-56
2023/08/13 11:14:38;;;;;;;1.60;0.90;;;26.20;23.20;;;;;;5074027;28;20516;-55
2023/08/13 11:17:05;;;;;;;1.42;0.90;;;26.20;20.50;;;;;;5075439;28;20435;-55
2023/08/13 11:19:34;;;;;;;1.23;0.90;;;26.20;20.40;;;;;;5074434;28;20459;-55
2023/08/13 11:22:03;;;;;;;1.35;0.80;;;26.20;1.00;;;;;;5077461;28;20449;-56
2023/08/13 11:24:32;;;;;;;1.00;0.80;;;26.40;1.00;;;;;;5075117;28;20449;-55
2023/08/13 11:27:00;;;;;;;1.10;0.80;;;26.50;1.00;;;;;;5075097;28;21117;-56
2023/08/13 11:29:28;;;;;;;1.00;0.75;;;26.70;2.80;;;;;;5075175;28;20430;-56
2023/08/13 11:31:55;;;;;;;1.58;0.90;;;27.30;1.00;;;;;;5065278;28;20457;-54
2023/08/13 11:34:22;;;;;;;0.90;0.80;;;27.80;1.00;;;;;;5096301;28;20475;-53
2023/08/13 11:36:55;;;;;;;1.02;0.70;;;27.90;1.00;;;;;;5090703;28;20836;-53
2023/08/13 11:39:25;;;;;;;1.42;0.80;;;27.90;1.00;;;;;;5089269;28;20450;-55
2023/08/13 11:41:53;;;;;;;1.10;0.80;;;27.60;1.00;;;;;;5078912;28;20423;-54
2023/08/13 11:44:20;;;;;;;1.30;0.80;;;27.70;1.00;;;;;;5074758;28;20426;-55
2023/08/13 11:46:54;;;;;;;1.40;0.80;;;27.50;1.00;;;;;;5086291;28;20456;-54
2023/08/13 11:49:21;;;;;;;1.40;0.93;;;27.30;1.00;;;;;;5095128;28;20841;-55
2023/08/13 11:51:51;;;;;;;1.60;0.90;;;27.20;1.00;;;;;;5095456;28;20499;-55
2023/08/13 11:54:19;;;;;;;1.20;0.90;;;26.80;10.20;;;;;;5094649;28;20418;-54
2023/08/13 11:56:48;;;;;;;1.10;0.90;;;27.10;8.50;;;;;;5085182;28;20451;-55
2023/08/13 11:59:15;;;;;;;1.20;0.90;;;27.20;1.00;;;;;;5071925;28;20889;-53
2023/08/13 12:01:42;;;;;;;1.60;0.90;;;27.20;1.00;;;;;;5074181;28;20424;-54
2023/08/13 12:04:09;;;;;;;1.10;0.90;;;27.20;1.00;;;;;;5090678;28;20479;-54
2023/08/13 12:06:45;;;;;;;1.00;0.80;;;27.50;1.00;;;;;;5090503;28;20769;-55
2023/08/13 12:09:14;;;;;;;1.27;0.80;;;27.90;1.00;;;;;;5091321;28;20430;-53
2023/08/13 12:11:41;;;;;;;1.40;0.80;;;28.20;1.00;;;;;;5092180;28;20512;-54
2023/08/13 12:14:08;;;;;;;1.20;0.90;;;28.50;1.00;;;;;;5073161;28;20800;-53
2023/08/13 12:16:35;;;;;;;1.45;0.80;;;28.60;1.00;;;;;;5073570;28;20416;-53
2023/08/13 12:19:05;;;;;;;1.23;0.80;;;28.60;1.00;;;;;;5073395;28;20773;-53
2023/08/13 12:21:32;;;;;;;1.80;0.80;;;28.60;1.00;;;;;;5074605;28;20479;-52
2023/08/13 12:23:59;;;;;;;1.90;0.80;;;28.50;1.00;;;;;;5072729;28;20501;-54
2023/08/13 12:26:27;;;;;;;1.30;0.70;;;28.40;1.00;;;;;;5072732;28;20431;-54
2023/08/13 12:28:54;;;;;;;1.20;0.80;;;28.00;1.00;;;;;;5087383;28;20517;-54
2023/08/13 12:31:25;;;;;;;1.80;0.80;;;27.80;1.00;;;;;;5094026;28;20434;-52
2023/08/13 12:33:54;;;;;;;1.00;0.80;;;27.80;1.00;;;;;;5076084;28;20878;-49
2023/08/13 12:36:21;;;;;;;1.10;0.70;;;28.10;1.00;;;;;;5072999;28;20422;-54
2023/08/13 12:38:49;;;;;;;1.40;0.80;;;28.40;1.00;;;;;;5072437;28;20431;-53
2023/08/13 12:41:16;;;;;;;1.30;0.80;;;28.60;1.00;;;;;;5072746;28;20484;-51
2023/08/13 12:43:45;;;;;;;0.93;0.70;;;28.60;1.00;;;;;;5074142;28;20423;-49
2023/08/13 12:46:11;;;;;;;1.30;0.70;;;28.60;1.00;;;;;;5073804;28;20503;-53
2023/08/13 12:48:40;;;;;;;0.90;0.70;;;28.50;1.00;;;;;;5074244;28;20492;-53
2023/08/13 12:51:07;;;;;;;1.00;0.60;;;28.30;1.00;;;;;;5073512;28;20839;-54